createdAt,value
2019-04-03T00:00:09.758Z,54.32
2019-04-03T00:00:49.774Z,54.22
2019-04-03T00:01:28.098Z,54.51
2019-04-03T00:02:04.424Z,54.58
2019-04-03T00:02:40.398Z,54.29
2019-04-03T00:03:15.970Z,54.58
2019-04-03T00:03:51.691Z,54.77
2019-04-03T00:04:27.874Z,54.82
2019-04-03T00:05:04.576Z,54.88
2019-04-03T00:05:42.055Z,54.63
2019-04-03T00:06:19.456Z,54.46
2019-04-03T00:06:55.082Z,54.57
2019-04-03T00:07:30.840Z,54.85
2019-04-03T00:08:07.032Z,54.98
2019-04-03T00:08:43.486Z,54.89
2019-04-03T00:09:19.547Z,54.76
2019-04-03T00:09:55.580Z,54.86
2019-04-03T00:10:31.754Z,54.89
2019-04-03T00:11:09.445Z,54.97
2019-04-03T00:11:44.873Z,55.10
2019-04-03T00:12:21.663Z,54.96
2019-04-03T00:12:57.278Z,55.10
2019-04-03T00:13:33.362Z,55.25
2019-04-03T00:14:12.264Z,55.16
2019-04-03T00:14:47.648Z,54.81
2019-04-03T00:15:24.517Z,54.86
2019-04-03T00:16:01.232Z,54.77
2019-04-03T00:16:37.971Z,54.83
2019-04-03T00:17:15.937Z,55.03
2019-04-03T00:17:51.478Z,54.94
2019-04-03T00:18:27.146Z,55.09
2019-04-03T00:19:03.498Z,55.10
2019-04-03T00:19:39.321Z,55.33
2019-04-03T00:20:18.209Z,55.23
2019-04-03T00:20:53.612Z,55.28
2019-04-03T00:21:30.534Z,55.45
2019-04-03T00:22:06.392Z,55.47
2019-04-03T00:22:42.600Z,55.58
2019-04-03T00:23:19.121Z,55.66
2019-04-03T00:23:55.086Z,55.64
2019-04-03T00:24:30.792Z,55.58
2019-04-03T00:25:08.117Z,55.56
2019-04-03T00:25:44.357Z,55.49
2019-04-03T00:26:22.561Z,55.64
2019-04-03T00:26:58.833Z,55.62
2019-04-03T00:27:34.850Z,55.39
2019-04-03T00:28:10.468Z,55.54
2019-04-03T00:28:46.317Z,55.72
2019-04-03T00:29:22.918Z,55.88
2019-04-03T00:29:58.605Z,55.82
2019-04-03T00:30:34.135Z,55.95
2019-04-03T00:31:10.023Z,55.98
2019-04-03T00:31:45.480Z,55.98
2019-04-03T00:32:21.788Z,56.17
2019-04-03T00:32:58.153Z,56.13
2019-04-03T00:33:34.071Z,55.97
2019-04-03T00:34:09.573Z,56.15
2019-04-03T00:34:45.644Z,56.28
2019-04-03T00:35:23.114Z,56.15
2019-04-03T00:35:58.816Z,56.25
2019-04-03T00:36:34.339Z,56.03
2019-04-03T00:37:10.169Z,56.00
2019-04-03T00:37:46.217Z,55.89
2019-04-03T00:38:24.356Z,55.85
2019-04-03T00:38:59.913Z,56.10
2019-04-03T00:39:35.589Z,56.34
2019-04-03T00:40:11.034Z,56.33
2019-04-03T00:40:46.644Z,56.25
2019-04-03T00:41:24.348Z,56.07
2019-04-03T00:41:59.774Z,56.01
2019-04-03T00:42:35.244Z,55.96
2019-04-03T00:43:10.690Z,56.31
2019-04-03T00:43:46.203Z,56.44
2019-04-03T00:44:23.990Z,56.46
2019-04-03T00:44:59.705Z,56.49
2019-04-03T00:45:35.222Z,56.64
2019-04-03T00:46:11.372Z,56.27
2019-04-03T00:46:48.315Z,56.29
2019-04-03T00:47:25.504Z,56.56
2019-04-03T00:48:01.485Z,56.43
2019-04-03T00:48:37.128Z,56.28
2019-04-03T00:49:12.965Z,56.33
2019-04-03T00:49:48.453Z,56.29
2019-04-03T00:50:26.137Z,56.30
2019-04-03T00:51:01.812Z,56.41
2019-04-03T00:51:37.377Z,56.13
2019-04-03T00:52:12.828Z,55.96
2019-04-03T00:52:48.289Z,55.75
2019-04-03T00:53:23.754Z,55.66
2019-04-03T00:53:59.259Z,55.67
2019-04-03T00:54:35.073Z,55.84
2019-04-03T00:55:11.214Z,55.76
2019-04-03T00:55:46.802Z,55.57
2019-04-03T00:56:26.092Z,55.74
2019-04-03T00:57:01.197Z,55.95
2019-04-03T00:57:37.242Z,56.05
2019-04-03T00:58:38.165Z,55.79
2019-04-03T00:59:13.645Z,55.64
2019-04-03T00:59:49.697Z,55.81
2019-04-03T01:00:26.397Z,55.86
2019-04-03T01:01:02.676Z,55.96
2019-04-03T01:01:39.094Z,55.97
2019-04-03T01:02:16.439Z,55.82
2019-04-03T01:02:52.485Z,55.67
2019-04-03T01:03:28.721Z,55.68
2019-04-03T01:04:04.510Z,55.86
2019-04-03T01:04:40.176Z,55.94
2019-04-03T01:05:16.837Z,55.62
2019-04-03T01:05:52.294Z,55.80
2019-04-03T01:06:28.679Z,55.89
2019-04-03T01:07:04.585Z,55.54
2019-04-03T01:07:40.177Z,55.73
2019-04-03T01:08:15.961Z,55.77
2019-04-03T01:08:51.802Z,55.89
2019-04-03T01:09:29.233Z,55.84
2019-04-03T01:10:05.422Z,55.80
2019-04-03T01:10:41.470Z,55.77
2019-04-03T01:11:16.950Z,55.53
2019-04-03T01:11:52.461Z,55.53
2019-04-03T01:12:30.483Z,55.71
2019-04-03T01:13:06.401Z,55.83
2019-04-03T01:13:41.862Z,55.81
2019-04-03T01:14:18.538Z,55.52
2019-04-03T01:14:54.095Z,55.57
2019-04-03T01:15:31.622Z,55.60
2019-04-03T01:16:07.733Z,55.37
2019-04-03T01:16:43.266Z,55.48
2019-04-03T01:17:18.762Z,55.24
2019-04-03T01:17:54.211Z,55.08
2019-04-03T01:18:30.201Z,55.18
2019-04-03T01:19:06.832Z,55.02
2019-04-03T01:19:42.719Z,54.63
2019-04-03T01:20:18.457Z,54.88
2019-04-03T01:20:54.612Z,54.79
2019-04-03T01:21:31.206Z,54.61
2019-04-03T01:22:07.752Z,54.59
2019-04-03T01:22:43.674Z,54.72
2019-04-03T01:23:19.788Z,54.77
2019-04-03T01:23:55.273Z,54.88
2019-04-03T01:24:30.869Z,54.83
2019-04-03T01:25:08.801Z,54.92
2019-04-03T01:25:44.996Z,54.83
2019-04-03T01:26:20.538Z,54.72
2019-04-03T01:26:56.574Z,54.57
2019-04-03T01:27:32.103Z,54.67
2019-04-03T01:28:07.619Z,54.67
2019-04-03T01:28:43.672Z,54.61
2019-04-03T01:29:19.375Z,54.28
2019-04-03T01:29:55.120Z,54.25
2019-04-03T01:30:30.565Z,54.34
2019-04-03T01:31:06.825Z,54.27
2019-04-03T01:31:44.378Z,54.20
2019-04-03T01:32:20.465Z,53.83
2019-04-03T01:32:56.159Z,53.88
2019-04-03T01:33:31.711Z,54.12
2019-04-03T01:34:08.312Z,53.76
2019-04-03T01:34:43.802Z,53.97
2019-04-03T01:35:19.784Z,53.90
2019-04-03T01:35:55.461Z,53.98
2019-04-03T01:36:31.761Z,53.58
2019-04-03T01:37:08.700Z,53.68
2019-04-03T01:37:44.126Z,54.12
2019-04-03T01:38:19.924Z,54.29
2019-04-03T01:38:55.862Z,54.16
2019-04-03T01:39:31.451Z,54.08
2019-04-03T01:40:09.379Z,54.21
2019-04-03T01:40:44.848Z,54.40
2019-04-03T01:41:21.653Z,54.49
2019-04-03T01:41:59.100Z,54.58
2019-04-03T01:42:35.273Z,54.65
2019-04-03T01:43:11.043Z,54.75
2019-04-03T01:43:47.208Z,54.87
2019-04-03T01:44:24.778Z,54.89
2019-04-03T01:45:01.901Z,54.90
2019-04-03T01:45:37.506Z,54.97
2019-04-03T01:46:13.824Z,54.96
2019-04-03T01:46:49.268Z,55.12
2019-04-03T01:47:27.348Z,55.23
2019-04-03T01:48:02.139Z,55.13
2019-04-03T01:48:38.067Z,55.15
2019-04-03T01:49:13.821Z,55.15
2019-04-03T01:49:49.846Z,55.16
2019-04-03T01:50:26.800Z,55.14
2019-04-03T01:51:03.182Z,55.23
2019-04-03T01:51:38.998Z,55.10
2019-04-03T01:52:14.709Z,55.24
2019-04-03T01:52:50.132Z,55.18
2019-04-03T01:53:25.909Z,55.00
2019-04-03T01:54:02.872Z,55.12
2019-04-03T01:54:39.397Z,54.71
2019-04-03T01:55:15.607Z,54.58
2019-04-03T01:55:51.343Z,54.82
2019-04-03T01:56:26.981Z,55.09
2019-04-03T01:57:02.785Z,55.14
2019-04-03T01:57:38.362Z,55.22
2019-04-03T01:58:13.973Z,55.33
2019-04-03T01:58:49.424Z,55.37
2019-04-03T01:59:24.871Z,55.42
2019-04-03T02:00:00.960Z,55.47
2019-04-03T02:00:37.630Z,55.51
2019-04-03T02:01:13.923Z,55.54
2019-04-03T02:01:49.408Z,55.60
2019-04-03T02:02:25.450Z,55.25
2019-04-03T02:03:02.309Z,55.10
2019-04-03T02:03:38.003Z,55.25
2019-04-03T02:04:13.462Z,55.38
2019-04-03T02:04:48.965Z,55.29
2019-04-03T02:05:24.752Z,55.45
2019-04-03T02:06:00.334Z,55.62
2019-04-03T02:06:36.151Z,55.22
2019-04-03T02:07:14.187Z,55.29
2019-04-03T02:07:49.469Z,55.24
2019-04-03T02:08:24.935Z,55.37
2019-04-03T02:09:00.382Z,55.59
2019-04-03T02:09:35.914Z,55.57
2019-04-03T02:10:18.774Z,55.45
2019-04-03T02:10:55.106Z,55.60
2019-04-03T02:11:30.540Z,55.65
2019-04-03T02:12:06.607Z,55.91
2019-04-03T02:12:42.650Z,56.08
2019-04-03T02:13:18.283Z,56.25
2019-04-03T02:13:53.841Z,55.96
2019-04-03T02:14:29.300Z,55.89
2019-04-03T02:15:04.862Z,55.82
2019-04-03T02:15:40.475Z,55.73
2019-04-03T02:16:16.088Z,55.86
2019-04-03T02:16:53.358Z,55.86
2019-04-03T02:17:29.319Z,55.92
2019-04-03T02:18:05.784Z,56.05
2019-04-03T02:18:41.782Z,55.64
2019-04-03T02:19:17.545Z,56.41
2019-04-03T02:19:56.022Z,56.41
2019-04-03T02:20:30.758Z,55.99
2019-04-03T02:21:06.689Z,56.09
2019-04-03T02:21:42.200Z,56.13
2019-04-03T02:22:17.669Z,56.20
2019-04-03T02:22:53.414Z,55.70
2019-04-03T02:23:30.792Z,55.70
2019-04-03T02:24:06.115Z,56.15
2019-04-03T02:24:41.568Z,56.20
2019-04-03T02:25:17.074Z,56.20
2019-04-03T02:25:52.931Z,56.26
2019-04-03T02:26:28.613Z,56.30
2019-04-03T02:27:04.731Z,56.12
2019-04-03T02:27:40.227Z,55.48
2019-04-03T02:28:15.689Z,55.65
2019-04-03T02:28:51.222Z,55.65
2019-04-03T02:29:26.984Z,56.15
2019-04-03T02:30:02.505Z,55.77
2019-04-03T02:30:38.297Z,55.77
2019-04-03T02:31:18.236Z,55.58
2019-04-03T02:31:52.720Z,55.70
2019-04-03T02:32:30.006Z,55.59
2019-04-03T02:33:05.949Z,55.76
2019-04-03T02:33:41.548Z,55.61
2019-04-03T02:34:17.409Z,55.73
2019-04-03T02:34:53.011Z,55.76
2019-04-03T02:35:28.527Z,55.63
2019-04-03T02:36:04.486Z,55.81
2019-04-03T02:36:43.433Z,55.91
2019-04-03T02:37:18.036Z,55.59
2019-04-03T02:37:53.995Z,55.94
2019-04-03T02:38:30.074Z,55.80
2019-04-03T02:39:07.041Z,55.72
2019-04-03T02:39:42.778Z,56.43
2019-04-03T02:40:18.858Z,56.29
2019-04-03T02:40:54.508Z,55.96
2019-04-03T02:41:30.338Z,55.75
2019-04-03T02:42:08.612Z,55.56
2019-04-03T02:42:43.371Z,55.50
2019-04-03T02:43:19.413Z,55.69
2019-04-03T02:43:55.097Z,55.51
2019-04-03T02:44:30.666Z,55.56
2019-04-03T02:45:06.685Z,55.93
2019-04-03T02:45:42.141Z,55.77
2019-04-03T02:46:17.568Z,55.97
2019-04-03T02:46:53.201Z,56.38
2019-04-03T02:47:32.423Z,56.52
2019-04-03T02:48:06.523Z,56.54
2019-04-03T02:48:42.327Z,56.54
2019-04-03T02:49:18.125Z,56.32
2019-04-03T02:49:53.548Z,55.93
2019-04-03T02:50:29.386Z,55.93
2019-04-03T02:51:07.381Z,56.17
2019-04-03T02:51:43.988Z,56.17
2019-04-03T02:52:19.796Z,56.03
2019-04-03T02:52:58.113Z,56.25
2019-04-03T02:53:33.811Z,56.39
2019-04-03T02:54:35.061Z,56.62
2019-04-03T02:55:09.783Z,56.62
2019-04-03T02:55:45.623Z,56.75
2019-04-03T02:56:21.063Z,56.67
2019-04-03T02:56:57.239Z,56.05
2019-04-03T02:57:32.648Z,56.16
2019-04-03T02:58:08.437Z,56.26
2019-04-03T02:58:43.874Z,56.41
2019-04-03T02:59:19.282Z,56.41
2019-04-03T02:59:57.843Z,56.82
2019-04-03T03:00:33.609Z,56.82
2019-04-03T03:01:08.950Z,56.34
2019-04-03T03:01:44.359Z,56.36
2019-04-03T03:02:20.178Z,56.58
2019-04-03T03:02:55.665Z,56.33
2019-04-03T03:03:31.071Z,56.46
2019-04-03T03:04:06.697Z,56.75
2019-04-03T03:04:42.895Z,57.25
2019-04-03T03:05:18.301Z,57.25
2019-04-03T03:05:53.710Z,56.95
2019-04-03T03:06:31.802Z,56.88
2019-04-03T03:07:06.463Z,56.43
2019-04-03T03:07:43.115Z,56.43
2019-04-03T03:08:22.507Z,56.89
2019-04-03T03:08:56.436Z,57.05
2019-04-03T03:09:32.833Z,57.30
2019-04-03T03:10:09.210Z,56.93
2019-04-03T03:10:44.889Z,56.93
2019-04-03T03:11:24.531Z,57.08
2019-04-03T03:12:00.397Z,57.43
2019-04-03T03:12:37.389Z,57.23
2019-04-03T03:13:13.781Z,57.41
2019-04-03T03:13:49.453Z,57.52
2019-04-03T03:14:24.984Z,57.52
2019-04-03T03:15:01.392Z,57.10
2019-04-03T03:15:37.975Z,56.91
2019-04-03T03:16:16.542Z,56.91
2019-04-03T03:16:51.480Z,57.15
2019-04-03T03:17:27.731Z,57.17
2019-04-03T03:18:03.962Z,57.19
2019-04-03T03:18:40.614Z,57.19
2019-04-03T03:19:16.908Z,57.41
2019-04-03T03:19:52.912Z,57.84
2019-04-03T03:20:30.798Z,57.84
2019-04-03T03:21:07.367Z,57.75
2019-04-03T03:21:45.467Z,57.84
2019-04-03T03:22:21.396Z,57.62
2019-04-03T03:22:58.391Z,57.26
2019-04-03T03:23:33.821Z,57.26
2019-04-03T03:24:10.132Z,57.20
2019-04-03T03:24:46.439Z,57.21
2019-04-03T03:25:21.950Z,57.17
2019-04-03T03:25:58.223Z,57.17
2019-04-03T03:26:36.245Z,57.15
2019-04-03T03:27:11.356Z,57.27
2019-04-03T03:27:47.931Z,57.51
2019-04-03T03:28:23.729Z,57.05
2019-04-03T03:29:15.747Z,57.05
2019-04-03T03:29:37.245Z,57.33
2019-04-03T03:30:33.310Z,57.33
2019-04-03T03:30:59.866Z,57.34
2019-04-03T03:32:00.267Z,56.97
2019-04-03T03:32:15.959Z,56.97
2019-04-03T03:32:44.918Z,57.39
2019-04-03T03:33:30.876Z,57.47
2019-04-03T03:34:02.008Z,57.79
2019-04-03T03:34:51.541Z,57.82
2019-04-03T03:35:20.166Z,57.74
2019-04-03T03:35:52.544Z,57.74
2019-04-03T03:36:29.088Z,57.63
2019-04-03T03:37:05.262Z,57.40
2019-04-03T03:37:41.162Z,57.43
2019-04-03T03:38:18.342Z,57.49
2019-04-03T03:38:55.532Z,57.49
2019-04-03T03:39:32.446Z,57.55
2019-04-03T03:40:08.355Z,57.70
2019-04-03T03:40:47.278Z,57.61
2019-04-03T03:41:22.650Z,57.39
2019-04-03T03:41:59.397Z,57.33
2019-04-03T03:42:35.907Z,57.53
2019-04-03T03:43:11.814Z,57.72
2019-04-03T03:43:48.399Z,58.03
2019-04-03T03:44:24.849Z,58.96
2019-04-03T03:45:02.807Z,59.22
2019-04-03T03:45:38.591Z,58.79
2019-04-03T03:46:14.369Z,59.17
2019-04-03T03:46:50.377Z,58.84
2019-04-03T03:47:26.159Z,58.84
2019-04-03T03:48:01.804Z,59.33
2019-04-03T03:48:42.459Z,59.35
2019-04-03T03:49:17.530Z,59.95
2019-04-03T03:49:52.974Z,59.21
2019-04-03T03:50:29.935Z,59.21
2019-04-03T03:51:06.427Z,59.56
2019-04-03T03:51:42.022Z,59.07
2019-04-03T03:52:17.850Z,59.09
2019-04-03T03:52:54.349Z,59.75
2019-04-03T03:53:30.277Z,59.67
2019-04-03T03:54:06.560Z,60.22
2019-04-03T03:54:42.340Z,60.36
2019-04-03T03:55:22.889Z,60.00
2019-04-03T03:55:59.312Z,60.34
2019-04-03T03:56:34.583Z,60.41
2019-04-03T03:57:10.090Z,60.75
2019-04-03T03:57:46.042Z,60.19
2019-04-03T03:58:22.287Z,60.19
2019-04-03T03:58:58.820Z,60.42
2019-04-03T03:59:34.832Z,60.44
2019-04-03T04:00:11.453Z,60.44
2019-04-03T04:00:51.761Z,60.67
2019-04-03T04:01:24.352Z,60.50
2019-04-03T04:02:05.325Z,60.50
2019-04-03T04:02:43.489Z,60.09
2019-04-03T04:03:17.722Z,60.33
2019-04-03T04:03:53.329Z,61.29
2019-04-03T04:04:28.947Z,60.67
2019-04-03T04:05:09.343Z,61.06
2019-04-03T04:05:41.882Z,61.44
2019-04-03T04:06:17.497Z,61.44
2019-04-03T04:06:53.882Z,61.81
2019-04-03T04:07:29.620Z,61.19
2019-04-03T04:08:09.349Z,61.19
2019-04-03T04:08:44.868Z,61.97
2019-04-03T04:09:20.190Z,63.14
2019-04-03T04:09:55.900Z,63.14
2019-04-03T04:10:35.877Z,62.40
2019-04-03T04:11:11.542Z,62.60
2019-04-03T04:11:46.982Z,62.30
2019-04-03T04:12:22.590Z,62.40
2019-04-03T04:12:59.366Z,61.91
2019-04-03T04:13:36.044Z,61.80
2019-04-03T04:14:13.056Z,61.75
2019-04-03T04:14:48.778Z,62.46
2019-04-03T04:15:28.736Z,62.54
2019-04-03T04:16:04.184Z,62.54
2019-04-03T04:16:39.742Z,62.99
2019-04-03T04:17:17.930Z,61.80
2019-04-03T04:17:53.952Z,62.36
2019-04-03T04:18:30.070Z,62.24
2019-04-03T04:19:06.172Z,61.73
2019-04-03T04:19:41.691Z,61.79
2019-04-03T04:20:17.641Z,61.61
2019-04-03T04:20:53.588Z,61.61
2019-04-03T04:21:29.142Z,61.33
2019-04-03T04:22:04.965Z,61.33
2019-04-03T04:22:41.098Z,61.57
2019-04-03T04:23:17.899Z,61.75
2019-04-03T04:23:55.952Z,61.75
2019-04-03T04:24:31.781Z,62.03
2019-04-03T04:25:07.566Z,62.05
2019-04-03T04:25:44.095Z,62.05
2019-04-03T04:26:20.481Z,62.22
2019-04-03T04:26:56.653Z,63.34
2019-04-03T04:27:34.107Z,63.34
2019-04-03T04:28:09.933Z,62.61
2019-04-03T04:28:45.502Z,62.81
2019-04-03T04:29:21.250Z,62.85
2019-04-03T04:29:57.180Z,62.93
2019-04-03T04:30:33.693Z,63.29
2019-04-03T04:31:09.164Z,63.95
2019-04-03T04:31:44.579Z,64.80
2019-04-03T04:32:20.350Z,64.00
2019-04-03T04:32:55.765Z,63.52
2019-04-03T04:33:31.176Z,63.30
2019-04-03T04:34:06.819Z,63.98
2019-04-03T04:34:42.250Z,64.33
2019-04-03T04:35:20.756Z,64.33
2019-04-03T04:35:54.943Z,64.76
2019-04-03T04:36:30.390Z,64.61
2019-04-03T04:37:05.950Z,64.87
2019-04-03T04:37:41.738Z,64.71
2019-04-03T04:38:17.127Z,64.93
2019-04-03T04:38:52.530Z,64.33
2019-04-03T04:39:28.453Z,65.63
2019-04-03T04:40:05.291Z,64.81
2019-04-03T04:40:40.699Z,64.81
2019-04-03T04:41:16.136Z,64.86
2019-04-03T04:41:51.799Z,65.58
2019-04-03T04:42:27.226Z,65.06
2019-04-03T04:43:04.317Z,65.43
2019-04-03T04:43:39.989Z,66.58
2019-04-03T04:44:15.752Z,66.58
2019-04-03T04:44:51.423Z,66.46
2019-04-03T04:45:26.847Z,66.52
2019-04-03T04:46:02.259Z,66.83
2019-04-03T04:46:37.772Z,66.84
2019-04-03T04:47:15.058Z,66.52
2019-04-03T04:47:50.285Z,66.41
2019-04-03T04:48:25.684Z,66.94
2019-04-03T04:49:01.828Z,67.21
2019-04-03T04:49:38.148Z,66.82
2019-04-03T04:50:15.660Z,66.75
2019-04-03T04:50:51.163Z,66.78
2019-04-03T04:51:26.600Z,67.19
2019-04-03T04:52:02.027Z,66.76
2019-04-03T04:52:37.493Z,66.75
2019-04-03T04:53:12.900Z,66.89
2019-04-03T04:53:48.327Z,66.40
2019-04-03T04:54:23.903Z,66.58
2019-04-03T04:55:01.349Z,66.57
2019-04-03T04:55:36.862Z,66.97
2019-04-03T04:56:12.345Z,67.72
2019-04-03T04:56:47.801Z,67.78
2019-04-03T04:57:23.200Z,67.78
2019-04-03T04:57:59.228Z,68.15
2019-04-03T04:58:35.244Z,68.02
2019-04-03T04:59:13.134Z,68.02
2019-04-03T04:59:48.560Z,67.87
2019-04-03T05:00:24.091Z,67.87
2019-04-03T05:00:59.982Z,67.91
2019-04-03T05:01:35.585Z,68.02
2019-04-03T05:02:11.752Z,68.57
2019-04-03T05:02:47.175Z,68.09
2019-04-03T05:03:22.952Z,68.28
2019-04-03T05:03:58.404Z,68.73
2019-04-03T05:04:33.793Z,68.77
2019-04-03T05:05:09.725Z,68.50
2019-04-03T05:05:45.841Z,68.37
2019-04-03T05:06:21.661Z,68.81
2019-04-03T05:06:59.703Z,69.03
2019-04-03T05:07:34.664Z,69.42
2019-04-03T05:08:10.353Z,68.83
2019-04-03T05:08:45.861Z,68.83
2019-04-03T05:09:21.287Z,68.93
2019-04-03T05:09:56.869Z,69.12
2019-04-03T05:10:33.243Z,69.48
2019-04-03T05:11:10.045Z,69.78
2019-04-03T05:11:45.490Z,70.45
2019-04-03T05:12:20.898Z,70.45
2019-04-03T05:12:56.402Z,69.66
2019-04-03T05:13:32.018Z,68.92
2019-04-03T05:14:07.729Z,68.86
2019-04-03T05:14:43.621Z,69.28
2019-04-03T05:15:21.705Z,69.54
2019-04-03T05:15:56.357Z,69.65
2019-04-03T05:16:31.835Z,69.88
2019-04-03T05:17:07.325Z,69.80
2019-04-03T05:17:42.816Z,69.57
2019-04-03T05:18:18.227Z,69.77
2019-04-03T05:18:53.813Z,70.21
2019-04-03T05:19:29.234Z,70.02
2019-04-03T05:20:05.342Z,69.92
2019-04-03T05:20:40.870Z,69.62
2019-04-03T05:21:16.521Z,69.77
2019-04-03T05:21:53.499Z,70.05
2019-04-03T05:22:28.933Z,69.69
2019-04-03T05:23:04.363Z,70.27
2019-04-03T05:23:39.801Z,70.27
2019-04-03T05:24:15.552Z,70.24
2019-04-03T05:24:51.388Z,70.32
2019-04-03T05:25:29.274Z,70.84
2019-04-03T05:26:03.927Z,70.59
2019-04-03T05:26:39.567Z,70.56
2019-04-03T05:27:15.167Z,70.46
2019-04-03T05:27:50.583Z,70.03
2019-04-03T05:28:26.380Z,70.19
2019-04-03T05:29:03.003Z,70.11
2019-04-03T05:29:39.345Z,70.33
2019-04-03T05:30:30.787Z,70.21
2019-04-03T05:31:08.051Z,70.21
2019-04-03T05:31:43.811Z,70.62
2019-04-03T05:32:19.792Z,71.17
2019-04-03T05:32:55.155Z,70.74
2019-04-03T05:33:30.732Z,70.49
2019-04-03T05:34:06.695Z,70.80
2019-04-03T05:34:43.993Z,70.68
2019-04-03T05:35:19.217Z,71.13
2019-04-03T05:35:54.649Z,70.94
2019-04-03T05:36:30.059Z,70.68
2019-04-03T05:37:05.511Z,70.68
2019-04-03T05:37:41.620Z,70.60
2019-04-03T05:38:17.034Z,70.61
2019-04-03T05:38:53.537Z,70.61
2019-04-03T05:39:29.399Z,70.65
2019-04-03T05:40:05.584Z,70.96
2019-04-03T05:40:41.224Z,70.66
2019-04-03T05:41:16.713Z,70.48
2019-04-03T05:41:52.520Z,70.48
2019-04-03T05:42:29.198Z,70.28
2019-04-03T05:43:05.139Z,70.12
2019-04-03T05:43:40.581Z,69.91
2019-04-03T05:44:15.998Z,70.12
2019-04-03T05:44:51.669Z,70.28
2019-04-03T05:45:27.371Z,70.11
2019-04-03T05:46:03.845Z,70.68
2019-04-03T05:46:39.966Z,70.68
2019-04-03T05:47:15.359Z,70.17
2019-04-03T05:47:51.010Z,70.26
2019-04-03T05:48:26.468Z,70.09
2019-04-03T05:49:01.915Z,70.09
2019-04-03T05:49:37.563Z,71.03
2019-04-03T05:50:12.991Z,71.06
2019-04-03T05:50:48.409Z,71.12
2019-04-03T05:51:24.175Z,70.72
2019-04-03T05:52:04.163Z,70.38
2019-04-03T05:52:39.528Z,70.06
2019-04-03T05:53:14.960Z,70.15
2019-04-03T05:53:50.423Z,70.29
2019-04-03T05:54:27.184Z,70.47
2019-04-03T05:55:02.633Z,70.29
2019-04-03T05:55:40.516Z,70.29
2019-04-03T05:56:15.318Z,70.15
2019-04-03T05:56:51.761Z,70.23
2019-04-03T05:57:29.184Z,70.10
2019-04-03T05:58:04.876Z,70.42
2019-04-03T05:58:40.321Z,70.20
2019-04-03T05:59:16.080Z,70.07
2019-04-03T05:59:59.787Z,70.20
2019-04-03T06:00:28.894Z,69.91
2019-04-03T06:01:06.590Z,70.18
2019-04-03T06:01:45.717Z,70.06
2019-04-03T06:02:21.381Z,70.60
2019-04-03T06:02:57.655Z,70.49
2019-04-03T06:03:40.825Z,70.12
2019-04-03T06:04:11.595Z,70.38
2019-04-03T06:04:47.030Z,70.92
2019-04-03T06:05:22.477Z,70.23
2019-04-03T06:05:58.605Z,70.28
2019-04-03T06:06:34.038Z,70.24
2019-04-03T06:07:09.562Z,69.90
2019-04-03T06:07:45.257Z,70.19
2019-04-03T06:08:20.760Z,70.52
2019-04-03T06:08:56.995Z,70.52
2019-04-03T06:09:33.072Z,70.15
2019-04-03T06:10:08.897Z,70.41
2019-04-03T06:10:44.693Z,70.41
2019-04-03T06:11:20.865Z,70.12
2019-04-03T06:11:59.519Z,70.00
2019-04-03T06:12:36.704Z,70.34
2019-04-03T06:13:11.758Z,70.67
2019-04-03T06:13:48.043Z,69.81
2019-04-03T06:14:24.026Z,69.71
2019-04-03T06:14:59.449Z,69.70
2019-04-03T06:15:34.963Z,69.87
2019-04-03T06:16:11.000Z,69.63
2019-04-03T06:16:46.425Z,68.77
2019-04-03T06:17:21.910Z,68.81
2019-04-03T06:17:57.481Z,69.45
2019-04-03T06:18:32.834Z,69.13
2019-04-03T06:19:08.321Z,69.55
2019-04-03T06:19:43.737Z,69.55
2019-04-03T06:20:19.175Z,68.85
2019-04-03T06:20:54.603Z,68.67
2019-04-03T06:21:30.210Z,68.08
2019-04-03T06:22:06.185Z,67.56
2019-04-03T06:22:41.709Z,68.37
2019-04-03T06:23:17.117Z,67.81
2019-04-03T06:23:53.056Z,67.37
2019-04-03T06:24:28.969Z,67.56
2019-04-03T06:25:04.936Z,67.84
2019-04-03T06:25:40.698Z,67.44
2019-04-03T06:26:16.121Z,67.85
2019-04-03T06:26:52.857Z,68.09
2019-04-03T06:27:28.496Z,67.60
2019-04-03T06:28:03.915Z,67.42
2019-04-03T06:28:39.350Z,67.73
2019-04-03T06:29:15.092Z,67.42
2019-04-03T06:29:54.765Z,67.77
2019-04-03T06:30:28.479Z,67.13
2019-04-03T06:31:03.949Z,66.96
2019-04-03T06:31:39.704Z,66.61
2019-04-03T06:32:16.031Z,66.93
2019-04-03T06:32:54.420Z,66.43
2019-04-03T06:33:31.445Z,66.00
2019-04-03T06:34:07.426Z,66.47
2019-04-03T06:34:43.807Z,66.25
2019-04-03T06:35:19.594Z,66.01
2019-04-03T06:35:55.321Z,65.79
2019-04-03T06:36:30.730Z,65.93
2019-04-03T06:37:06.200Z,65.84
2019-04-03T06:37:41.654Z,65.47
2019-04-03T06:38:17.080Z,65.84
2019-04-03T06:38:52.493Z,65.42
2019-04-03T06:39:31.521Z,65.27
2019-04-03T06:40:05.735Z,65.25
2019-04-03T06:40:41.163Z,64.87
2019-04-03T06:41:17.495Z,64.75
2019-04-03T06:41:52.895Z,64.88
2019-04-03T06:42:28.926Z,64.51
2019-04-03T06:43:04.634Z,64.60
2019-04-03T06:43:40.375Z,65.04
2019-04-03T06:44:16.470Z,64.70
2019-04-03T06:44:53.607Z,64.11
2019-04-03T06:45:29.175Z,64.48
2019-04-03T06:46:05.190Z,64.24
2019-04-03T06:46:40.587Z,64.70
2019-04-03T06:47:16.086Z,63.95
2019-04-03T06:47:51.476Z,63.83
2019-04-03T06:48:26.889Z,64.61
2019-04-03T06:49:02.425Z,64.14
2019-04-03T06:49:39.721Z,64.28
2019-04-03T06:50:17.454Z,63.65
2019-04-03T06:50:52.519Z,64.38
2019-04-03T06:51:27.950Z,64.82
2019-04-03T06:52:03.951Z,65.33
2019-04-03T06:52:39.788Z,65.35
2019-04-03T06:53:15.495Z,65.44
2019-04-03T06:53:51.487Z,65.65
2019-04-03T06:54:26.968Z,66.39
2019-04-03T06:55:03.994Z,65.07
2019-04-03T06:55:39.614Z,64.96
2019-04-03T06:56:15.322Z,64.82
2019-04-03T06:56:52.198Z,64.55
2019-04-03T06:57:27.847Z,65.32
2019-04-03T06:58:03.332Z,65.65
2019-04-03T06:58:40.159Z,65.54
2019-04-03T06:59:16.489Z,65.89
2019-04-03T06:59:52.461Z,65.49
2019-04-03T07:00:27.927Z,66.13
2019-04-03T07:01:03.350Z,65.82
2019-04-03T07:01:38.765Z,64.87
2019-04-03T07:02:14.633Z,65.17
2019-04-03T07:02:51.035Z,65.49
2019-04-03T07:03:26.412Z,65.68
2019-04-03T07:04:02.560Z,65.69
2019-04-03T07:04:38.872Z,65.84
2019-04-03T07:05:14.490Z,65.87
2019-04-03T07:05:50.257Z,65.21
2019-04-03T07:06:25.682Z,65.31
2019-04-03T07:07:01.457Z,65.23
2019-04-03T07:07:37.209Z,65.12
2019-04-03T07:08:12.938Z,64.57
2019-04-03T07:08:48.405Z,64.47
2019-04-03T07:09:34.065Z,64.46
2019-04-03T07:10:02.324Z,65.00
2019-04-03T07:10:40.290Z,64.56
2019-04-03T07:11:23.445Z,64.72
2019-04-03T07:11:53.099Z,65.42
2019-04-03T07:12:28.638Z,64.72
2019-04-03T07:13:04.160Z,64.50
2019-04-03T07:13:39.989Z,64.26
2019-04-03T07:14:15.409Z,64.53
2019-04-03T07:14:50.891Z,64.20
2019-04-03T07:15:27.000Z,64.23
2019-04-03T07:16:02.709Z,64.34
2019-04-03T07:16:38.982Z,63.79
2019-04-03T07:17:14.493Z,64.03
2019-04-03T07:17:50.231Z,63.56
2019-04-03T07:18:26.325Z,63.20
2019-04-03T07:19:01.738Z,63.90
2019-04-03T07:19:37.917Z,63.05
2019-04-03T07:20:18.797Z,62.96
2019-04-03T07:20:52.722Z,62.96
2019-04-03T07:21:28.133Z,62.76
2019-04-03T07:22:04.300Z,63.12
2019-04-03T07:22:40.075Z,62.82
2019-04-03T07:23:15.481Z,62.84
2019-04-03T07:23:50.893Z,62.20
2019-04-03T07:24:26.803Z,62.29
2019-04-03T07:25:03.836Z,63.02
2019-04-03T07:25:39.515Z,63.20
2019-04-03T07:26:14.923Z,62.92
2019-04-03T07:26:51.630Z,63.21
2019-04-03T07:27:27.756Z,63.92
2019-04-03T07:28:03.429Z,63.42
2019-04-03T07:28:40.664Z,63.47
2019-04-03T07:29:17.334Z,62.95
2019-04-03T07:29:53.512Z,62.07
2019-04-03T07:30:28.933Z,62.18
2019-04-03T07:31:04.354Z,62.04
2019-04-03T07:31:39.850Z,62.33
2019-04-03T07:32:15.355Z,63.41
2019-04-03T07:32:51.249Z,62.69
2019-04-03T07:33:28.702Z,63.26
2019-04-03T07:34:04.749Z,62.10
2019-04-03T07:34:40.698Z,62.42
2019-04-03T07:35:16.187Z,62.41
2019-04-03T07:35:51.619Z,62.27
2019-04-03T07:36:27.995Z,62.03
2019-04-03T07:37:04.186Z,61.41
2019-04-03T07:37:39.617Z,61.46
2019-04-03T07:38:15.142Z,61.56
2019-04-03T07:38:51.156Z,61.67
2019-04-03T07:39:26.565Z,61.57
2019-04-03T07:40:02.326Z,60.39
2019-04-03T07:40:38.670Z,60.44
2019-04-03T07:41:14.808Z,60.34
2019-04-03T07:41:53.537Z,59.80
2019-04-03T07:42:27.792Z,60.37
2019-04-03T07:43:04.028Z,60.95
2019-04-03T07:43:39.520Z,60.91
2019-04-03T07:44:15.514Z,60.83
2019-04-03T07:44:51.399Z,61.19
2019-04-03T07:45:27.452Z,60.92
2019-04-03T07:46:03.973Z,61.64